sensor_id;sensor_type;location;lat;lon;timestamp;pressure;altitude;pressure_sealevel;temperature;humidity
49104;BME280;34915;52.926;11.116;2022-09-09T00:03:40;100826.59;;;14.25;100.00
49104;BME280;34915;52.926;11.116;2022-09-09T00:06:33;100813.94;;;14.17;100.00
49104;BME280;34915;52.926;11.116;2022-09-09T00:09:10;100815.19;;;14.13;100.00
49104;BME280;34915;52.926;11.116;2022-09-09T00:11:42;100812.53;;;14.13;100.00
49104;BME280;34915;52.926;11.116;2022-09-09T00:17:01;100814.19;;;14.14;100.00
49104;BME280;34915;52.926;11.116;2022-09-09T00:19:38;100810.56;;;14.15;100.00
49104;BME280;34915;52.926;11.116;2022-09-09T00:22:19;100803.53;;;14.14;100.00
49104;BME280;34915;52.926;11.116;2022-09-09T00:24:49;100802.56;;;14.04;100.00
49104;BME280;34915;52.926;11.116;2022-09-09T00:27:37;100804.31;;;14.05;100.00
49104;BME280;34915;52.926;11.116;2022-09-09T00:30:18;100797.03;;;14.07;100.00
49104;BME280;34915;52.926;11.116;2022-09-09T00:32:50;100801.50;;;14.07;100.00
49104;BME280;34915;52.926;11.116;2022-09-09T00:35:36;100797.25;;;14.04;100.00
49104;BME280;34915;52.926;11.116;2022-09-09T00:38:10;100800.56;;;13.97;100.00
49104;BME280;34915;52.926;11.116;2022-09-09T00:40:55;100795.75;;;13.91;100.00
49104;BME280;34915;52.926;11.116;2022-09-09T00:43:32;100798.53;;;13.89;100.00
49104;BME280;34915;52.926;11.116;2022-09-09T00:54:12;100787.22;;;13.77;100.00
49104;BME280;34915;52.926;11.116;2022-09-09T01:14:31;100801.28;;;13.68;100.00
49104;BME280;34915;52.926;11.116;2022-09-09T01:25:27;100792.88;;;13.52;100.00
49104;BME280;34915;52.926;11.116;2022-09-09T01:27:57;100803.78;;;13.49;100.00
49104;BME280;34915;52.926;11.116;2022-09-09T01:30:24;100793.38;;;13.46;100.00
49104;BME280;34915;52.926;11.116;2022-09-09T01:32:54;100784.44;;;13.47;100.00
49104;BME280;34915;52.926;11.116;2022-09-09T01:38:10;100791.72;;;13.45;100.00
49104;BME280;34915;52.926;11.116;2022-09-09T01:40:36;100793.63;;;13.43;100.00
49104;BME280;34915;52.926;11.116;2022-09-09T01:43:02;100785.78;;;13.41;100.00
49104;BME280;34915;52.926;11.116;2022-09-09T01:45:29;100782.97;;;13.43;100.00
49104;BME280;34915;52.926;11.116;2022-09-09T01:47:55;100788.31;;;13.43;100.00
49104;BME280;34915;52.926;11.116;2022-09-09T01:50:22;100790.25;;;13.41;100.00
49104;BME280;34915;52.926;11.116;2022-09-09T01:52:50;100787.72;;;13.39;100.00
49104;BME280;34915;52.926;11.116;2022-09-09T01:55:28;100783.50;;;13.37;100.00
49104;BME280;34915;52.926;11.116;2022-09-09T02:00:23;100796.09;;;13.35;100.00
49104;BME280;34915;52.926;11.116;2022-09-09T02:03:29;100796.34;;;13.32;100.00
49104;BME280;34915;52.926;11.116;2022-09-09T02:06:32;100794.63;;;13.31;100.00
49104;BME280;34915;52.926;11.116;2022-09-09T02:09:01;100792.94;;;13.30;100.00
49104;BME280;34915;52.926;11.116;2022-09-09T02:11:29;100793.44;;;13.24;100.00
49104;BME280;34915;52.926;11.116;2022-09-09T02:14:02;100796.84;;;13.26;100.00
49104;BME280;34915;52.926;11.116;2022-09-09T02:19:15;100796.84;;;13.26;100.00
49104;BME280;34915;52.926;11.116;2022-09-09T02:21:44;100800.44;;;13.25;100.00
49104;BME280;34915;52.926;11.116;2022-09-09T02:24:13;100793.44;;;13.24;100.00
49104;BME280;34915;52.926;11.116;2022-09-09T02:26:42;100795.38;;;13.22;100.00
49104;BME280;34915;52.926;11.116;2022-09-09T02:29:15;100803.81;;;13.27;100.00
49104;BME280;34915;52.926;11.116;2022-09-09T02:31:43;100795.00;;;13.27;100.00
49104;BME280;34915;52.926;11.116;2022-09-09T02:34:11;100793.44;;;13.24;100.00
49104;BME280;34915;52.926;11.116;2022-09-09T02:36:40;100798.03;;;13.22;100.00
49104;BME280;34915;52.926;11.116;2022-09-09T02:39:10;100798.03;;;13.22;100.00
49104;BME280;34915;52.926;11.116;2022-09-09T02:41:39;100788.34;;;13.21;100.00
49104;BME280;34915;52.926;11.116;2022-09-09T02:44:09;100785.00;;;13.19;100.00
49104;BME280;34915;52.926;11.116;2022-09-09T02:49:16;100784.50;;;13.14;100.00
49104;BME280;34915;52.926;11.116;2022-09-09T02:54:30;100792.72;;;13.11;100.00
49104;BME280;34915;52.926;11.116;2022-09-09T02:57:03;100794.91;;;13.06;100.00
49104;BME280;34915;52.926;11.116;2022-09-09T02:59:31;100797.56;;;13.06;100.00
49104;BME280;34915;52.926;11.116;2022-09-09T03:01:57;100801.19;;;13.05;100.00
49104;BME280;34915;52.926;11.116;2022-09-09T03:04:25;100791.53;;;13.04;100.00
49104;BME280;34915;52.926;11.116;2022-09-09T03:06:50;100790.94;;;13.01;100.00
49104;BME280;34915;52.926;11.116;2022-09-09T03:09:16;100797.13;;;13.01;100.00
49104;BME280;34915;52.926;11.116;2022-09-09T03:11:42;100794.22;;;13.04;100.00
49104;BME280;34915;52.926;11.116;2022-09-09T03:14:10;100789.84;;;13.03;100.00
49104;BME280;34915;52.926;11.116;2022-09-09T03:16:36;100810.88;;;13.06;100.00
49104;BME280;34915;52.926;11.116;2022-09-09T03:19:02;100802.19;;;13.04;100.00
49104;BME280;34915;52.926;11.116;2022-09-09T03:21:28;100805.81;;;13.03;100.00
49104;BME280;34915;52.926;11.116;2022-09-09T03:23:54;100814.75;;;13.02;100.00
49104;BME280;34915;52.926;11.116;2022-09-09T03:26:19;100822.00;;;13.00;100.00
49104;BME280;34915;52.926;11.116;2022-09-09T03:28:45;100818.59;;;12.98;100.00
49104;BME280;34915;52.926;11.116;2022-09-09T03:31:11;100812.56;;;12.96;100.00
49104;BME280;34915;52.926;11.116;2022-09-09T03:33:37;100808.94;;;12.97;100.00
49104;BME280;34915;52.926;11.116;2022-09-09T03:36:04;100800.34;;;12.94;100.00
49104;BME280;34915;52.926;11.116;2022-09-09T03:38:31;100804.84;;;12.93;100.00
49104;BME280;34915;52.926;11.116;2022-09-09T03:40:57;100806.53;;;12.94;100.00
49104;BME280;34915;52.926;11.116;2022-09-09T03:43:24;100808.44;;;12.92;100.00
49104;BME280;34915;52.926;11.116;2022-09-09T03:45:50;100806.78;;;12.91;100.00
49104;BME280;34915;52.926;11.116;2022-09-09T03:48:17;100811.34;;;12.89;100.00
49104;BME280;34915;52.926;11.116;2022-09-09T03:50:50;100815.97;;;12.87;100.00
49104;BME280;34915;52.926;11.116;2022-09-09T03:53:18;100810.66;;;12.87;100.00
49104;BME280;34915;52.926;11.116;2022-09-09T03:55:49;100817.91;;;12.85;100.00
49104;BME280;34915;52.926;11.116;2022-09-09T03:58:16;100812.81;;;12.82;100.00
49104;BME280;34915;52.926;11.116;2022-09-09T04:00:53;100818.97;;;12.83;100.00
49104;BME280;34915;52.926;11.116;2022-09-09T04:03:19;100811.09;;;12.81;100.00
49104;BME280;34915;52.926;11.116;2022-09-09T04:05:44;100825.34;;;12.80;100.00
49104;BME280;34915;52.926;11.116;2022-09-09T04:08:10;100817.13;;;12.73;100.00
49104;BME280;34915;52.926;11.116;2022-09-09T04:10:37;100817.38;;;12.70;100.00
49104;BME280;34915;52.926;11.116;2022-09-09T04:13:04;100821.00;;;12.69;100.00
49104;BME280;34915;52.926;11.116;2022-09-09T04:15:30;100819.91;;;12.71;100.00
49104;BME280;34915;52.926;11.116;2022-09-09T04:17:56;100826.78;;;12.63;100.00
49104;BME280;34915;52.926;11.116;2022-09-09T04:20:22;100823.66;;;12.58;100.00
49104;BME280;34915;52.926;11.116;2022-09-09T04:22:47;100824.72;;;12.55;100.00
49104;BME280;34915;52.926;11.116;2022-09-09T04:25:13;100822.19;;;12.54;100.00
49104;BME280;34915;52.926;11.116;2022-09-09T04:27:39;100820.97;;;12.47;100.00
49104;BME280;34915;52.926;11.116;2022-09-09T04:30:06;100829.91;;;12.46;100.00
49104;BME280;34915;52.926;11.116;2022-09-09T04:32:33;100831.72;;;12.45;100.00
49104;BME280;34915;52.926;11.116;2022-09-09T04:34:59;100828.22;;;12.45;100.00
49104;BME280;34915;52.926;11.116;2022-09-09T04:37:25;100841.38;;;12.46;100.00
49104;BME280;34915;52.926;11.116;2022-09-09T04:39:51;100823.63;;;12.47;100.00
49104;BME280;34915;52.926;11.116;2022-09-09T04:42:17;100819.50;;;12.43;100.00
49104;BME280;34915;52.926;11.116;2022-09-09T04:44:44;100832.06;;;12.41;100.00
49104;BME280;34915;52.926;11.116;2022-09-09T04:47:10;100842.47;;;12.44;100.00
49104;BME280;34915;52.926;11.116;2022-09-09T04:49:36;100820.38;;;12.43;100.00
49104;BME280;34915;52.926;11.116;2022-09-09T04:52:02;100836.91;;;12.47;100.00
49104;BME280;34915;52.926;11.116;2022-09-09T04:54:29;100840.53;;;12.46;100.00
49104;BME280;34915;52.926;11.116;2022-09-09T04:56:55;100832.66;;;12.44;100.00
49104;BME280;34915;52.926;11.116;2022-09-09T04:59:21;100839.81;;;12.44;100.00
49104;BME280;34915;52.926;11.116;2022-09-09T05:01:48;100839.69;;;12.45;100.00
49104;BME280;34915;52.926;11.116;2022-09-09T05:04:15;100836.91;;;12.47;100.00
49104;BME280;34915;52.926;11.116;2022-09-09T05:06:41;100836.91;;;12.47;100.00
49104;BME280;34915;52.926;11.116;2022-09-09T05:09:08;100834.13;;;12.48;100.00
49104;BME280;34915;52.926;11.116;2022-09-09T05:11:34;100829.91;;;12.46;100.00
49104;BME280;34915;52.926;11.116;2022-09-09T05:14:03;100833.91;;;12.51;100.00
49104;BME280;34915;52.926;11.116;2022-09-09T05:16:29;100834.50;;;12.55;100.00
49104;BME280;34915;52.926;11.116;2022-09-09T05:18:55;100832.81;;;12.54;100.00
49104;BME280;34915;52.926;11.116;2022-09-09T05:21:23;100841.75;;;12.53;100.00
49104;BME280;34915;52.926;11.116;2022-09-09T05:23:49;100842.22;;;12.47;100.00
49104;BME280;34915;52.926;11.116;2022-09-09T05:26:21;100838.63;;;12.48;100.00
49104;BME280;34915;52.926;11.116;2022-09-09T05:28:47;100848.50;;;12.46;100.00
49104;BME280;34915;52.926;11.116;2022-09-09T05:31:14;100846.06;;;12.43;100.00
49104;BME280;34915;52.926;11.116;2022-09-09T05:33:42;100837.63;;;12.38;100.00
49104;BME280;34915;52.926;11.116;2022-09-09T05:36:11;100846.06;;;12.43;100.00
49104;BME280;34915;52.926;11.116;2022-09-09T05:38:39;100847.53;;;12.47;100.00
49104;BME280;34915;52.926;11.116;2022-09-09T05:41:06;100848.03;;;12.52;100.00
49104;BME280;34915;52.926;11.116;2022-09-09T05:43:32;100845.38;;;12.52;100.00
49104;BME280;34915;52.926;11.116;2022-09-09T05:46:09;100853.13;;;12.66;100.00
49104;BME280;34915;52.926;11.116;2022-09-09T05:48:37;100854.34;;;12.73;100.00
49104;BME280;34915;52.926;11.116;2022-09-09T05:51:08;100850.03;;;12.82;100.00
49104;BME280;34915;52.926;11.116;2022-09-09T05:53:34;100849.31;;;12.91;100.00
49104;BME280;34915;52.926;11.116;2022-09-09T05:56:05;100866.25;;;13.01;100.00
49104;BME280;34915;52.926;11.116;2022-09-09T05:58:32;100862.13;;;13.08;100.00
49104;BME280;34915;52.926;11.116;2022-09-09T06:01:07;100863.34;;;13.15;100.00
49104;BME280;34915;52.926;11.116;2022-09-09T06:03:38;100859.72;;;13.16;100.00
49104;BME280;34915;52.926;11.116;2022-09-09T06:06:10;100871.09;;;13.29;100.00
49104;BME280;34915;52.926;11.116;2022-09-09T06:08:38;100863.56;;;13.34;100.00
49104;BME280;34915;52.926;11.116;2022-09-09T06:11:07;100864.78;;;13.41;100.00
49104;BME280;34915;52.926;11.116;2022-09-09T06:13:34;100869.22;;;13.40;100.00
49104;BME280;34915;52.926;11.116;2022-09-09T06:16:02;100878.53;;;13.46;100.00
49104;BME280;34915;52.926;11.116;2022-09-09T06:18:29;100882.53;;;13.51;100.00
49104;BME280;34915;52.926;11.116;2022-09-09T06:23:25;100876.97;;;13.54;100.00
49104;BME280;34915;52.926;11.116;2022-09-09T06:25:51;100877.53;;;13.58;100.00
49104;BME280;34915;52.926;11.116;2022-09-09T06:28:17;100889.66;;;13.62;100.00
49104;BME280;34915;52.926;11.116;2022-09-09T06:30:44;100889.16;;;13.68;100.00
49104;BME280;34915;52.926;11.116;2022-09-09T06:33:10;100895.69;;;13.75;100.00
49104;BME280;34915;52.926;11.116;2022-09-09T06:35:36;100899.03;;;13.77;100.00
49104;BME280;34915;52.926;11.116;2022-09-09T06:38:01;100892.50;;;13.80;100.00
49104;BME280;34915;52.926;11.116;2022-09-09T06:40:27;100898.06;;;13.88;100.00
49104;BME280;34915;52.926;11.116;2022-09-09T06:42:52;100895.88;;;13.93;100.00
49104;BME280;34915;52.926;11.116;2022-09-09T06:45:18;100897.31;;;13.97;100.00
49104;BME280;34915;52.926;11.116;2022-09-09T06:47:44;100893.41;;;14.01;100.00
49104;BME280;34915;52.926;11.116;2022-09-09T06:50:09;100894.88;;;14.05;100.00
49104;BME280;34915;52.926;11.116;2022-09-09T06:52:36;100891.47;;;14.03;100.00
49104;BME280;34915;52.926;11.116;2022-09-09T06:55:03;100892.66;;;14.10;100.00
49104;BME280;34915;52.926;11.116;2022-09-09T06:57:29;100890.50;;;14.15;100.00
49104;BME280;34915;52.926;11.116;2022-09-09T06:59:54;100891.41;;;14.25;100.00
49104;BME280;34915;52.926;11.116;2022-09-09T07:02:22;100885.56;;;14.31;100.00
49104;BME280;34915;52.926;11.116;2022-09-09T07:04:48;100888.44;;;14.39;100.00
49104;BME280;34915;52.926;11.116;2022-09-09T07:07:16;100884.09;;;14.38;100.00
49104;BME280;34915;52.926;11.116;2022-09-09T07:09:43;100887.91;;;14.45;100.00
49104;BME280;34915;52.926;11.116;2022-09-09T07:12:08;100887.66;;;14.48;100.00
49104;BME280;34915;52.926;11.116;2022-09-09T07:14:34;100894.44;;;14.52;100.00
49104;BME280;34915;52.926;11.116;2022-09-09T07:17:02;100891.97;;;14.60;100.00
49104;BME280;34915;52.926;11.116;2022-09-09T07:19:30;100894.38;;;14.63;100.00
49104;BME280;34915;52.926;11.116;2022-09-09T07:21:55;100896.78;;;14.66;100.00
49104;BME280;34915;52.926;11.116;2022-09-09T07:24:21;100899.63;;;14.74;100.00
49104;BME280;34915;52.926;11.116;2022-09-09T07:26:47;100897.66;;;14.76;100.00
49104;BME280;34915;52.926;11.116;2022-09-09T07:29:12;100892.53;;;14.83;100.00
49104;BME280;34915;52.926;11.116;2022-09-09T07:31:42;100891.03;;;14.90;100.00
49104;BME280;34915;52.926;11.116;2022-09-09T07:34:08;100890.78;;;14.93;100.00
49104;BME280;34915;52.926;11.116;2022-09-09T07:36:36;100912.75;;;15.06;100.00
49104;BME280;34915;52.926;11.116;2022-09-09T07:39:06;100912.47;;;15.09;100.00
49104;BME280;34915;52.926;11.116;2022-09-09T07:41:33;100922.63;;;15.15;100.00
49104;BME280;34915;52.926;11.116;2022-09-09T07:44:04;100907.59;;;15.14;100.00
49104;BME280;34915;52.926;11.116;2022-09-09T07:46:30;100913.63;;;15.16;100.00
49104;BME280;34915;52.926;11.116;2022-09-09T07:48:56;100914.25;;;15.20;100.00
49104;BME280;34915;52.926;11.116;2022-09-09T07:51:31;100919.34;;;15.32;100.00
49104;BME280;34915;52.926;11.116;2022-09-09T07:53:59;100927.50;;;15.30;100.00
49104;BME280;34915;52.926;11.116;2022-09-09T07:56:28;100923.44;;;15.36;100.00
49104;BME280;34915;52.926;11.116;2022-09-09T07:58:55;100919.53;;;15.40;100.00
49104;BME280;34915;52.926;11.116;2022-09-09T08:03:57;100912.97;;;15.53;100.00
49104;BME280;34915;52.926;11.116;2022-09-09T08:06:32;100920.31;;;15.61;100.00
49104;BME280;34915;52.926;11.116;2022-09-09T08:09:01;100921.19;;;15.71;100.00
49104;BME280;34915;52.926;11.116;2022-09-09T08:11:29;100915.03;;;15.79;100.00
49104;BME280;34915;52.926;11.116;2022-09-09T08:13:56;100919.72;;;15.96;100.00
49104;BME280;34915;52.926;11.116;2022-09-09T08:16:27;100917.03;;;15.96;100.00
49104;BME280;34915;52.926;11.116;2022-09-09T08:18:54;100920.13;;;16.01;100.00
49104;BME280;34915;52.926;11.116;2022-09-09T08:21:22;100909.75;;;16.27;100.00
49104;BME280;34915;52.926;11.116;2022-09-09T08:23:51;100906.41;;;16.34;100.00
49104;BME280;34915;52.926;11.116;2022-09-09T08:26:20;100905.84;;;16.59;100.00
49104;BME280;34915;52.926;11.116;2022-09-09T08:28:50;100903.84;;;16.61;100.00
49104;BME280;34915;52.926;11.116;2022-09-09T08:31:21;100899.63;;;16.68;100.00
49104;BME280;34915;52.926;11.116;2022-09-09T08:33:48;100899.88;;;16.83;100.00
49104;BME280;34915;52.926;11.116;2022-09-09T08:36:17;100897.31;;;17.01;100.00
49104;BME280;34915;52.926;11.116;2022-09-09T08:38:47;100895.84;;;17.16;100.00
49104;BME280;34915;52.926;11.116;2022-09-09T08:46:57;100912.91;;;17.51;100.00
49104;BME280;34915;52.926;11.116;2022-09-09T08:52:26;100916.56;;;17.50;100.00
49104;BME280;34915;52.926;11.116;2022-09-09T08:55:05;100914.63;;;17.52;100.00
49104;BME280;34915;52.926;11.116;2022-09-09T08:57:38;100914.91;;;17.49;100.00
49104;BME280;34915;52.926;11.116;2022-09-09T09:00:05;100913.72;;;17.61;100.00
49104;BME280;34915;52.926;11.116;2022-09-09T09:10:49;100925.38;;;18.13;100.00
49104;BME280;34915;52.926;11.116;2022-09-09T09:13:23;100927.66;;;18.35;100.00
49104;BME280;34915;52.926;11.116;2022-09-09T09:16:00;100937.47;;;18.44;100.00
49104;BME280;34915;52.926;11.116;2022-09-09T09:18:29;100929.03;;;18.39;100.00
49104;BME280;34915;52.926;11.116;2022-09-09T09:21:12;100921.75;;;18.14;100.00
49104;BME280;34915;52.926;11.116;2022-09-09T09:23:51;100934.25;;;18.23;100.00
49104;BME280;34915;52.926;11.116;2022-09-09T09:26:21;100938.13;;;18.28;100.00
49104;BME280;34915;52.926;11.116;2022-09-09T09:28:50;100936.22;;;18.38;100.00
49104;BME280;34915;52.926;11.116;2022-09-09T09:31:18;100930.72;;;18.40;100.00
49104;BME280;34915;52.926;11.116;2022-09-09T09:33:50;100937.78;;;18.41;100.00
49104;BME280;34915;52.926;11.116;2022-09-09T09:36:19;100933.63;;;18.29;100.00
49104;BME280;34915;52.926;11.116;2022-09-09T09:39:21;100938.53;;;18.16;100.00
49104;BME280;34915;52.926;11.116;2022-09-09T09:41:47;100933.72;;;18.10;100.00
49104;BME280;34915;52.926;11.116;2022-09-09T09:44:25;100932.13;;;18.00;100.00
49104;BME280;34915;52.926;11.116;2022-09-09T09:46:51;100931.84;;;17.93;100.00
49104;BME280;34915;52.926;11.116;2022-09-09T09:49:17;100938.63;;;17.97;100.00
49104;BME280;34915;52.926;11.116;2022-09-09T09:51:43;100945.88;;;17.87;100.00
49104;BME280;34915;52.926;11.116;2022-09-09T09:56:47;100933.56;;;17.68;100.00
49104;BME280;34915;52.926;11.116;2022-09-09T09:59:39;100940.94;;;17.83;100.00
49104;BME280;34915;52.926;11.116;2022-09-09T10:02:19;100933.47;;;18.04;100.00
49104;BME280;34915;52.926;11.116;2022-09-09T10:04:45;100928.41;;;18.01;100.00
49104;BME280;34915;52.926;11.116;2022-09-09T10:07:15;100940.00;;;18.01;100.00
49104;BME280;34915;52.926;11.116;2022-09-09T10:09:42;100934.66;;;18.01;100.00
49104;BME280;34915;52.926;11.116;2022-09-09T10:12:33;100936.72;;;18.07;100.00
49104;BME280;34915;52.926;11.116;2022-09-09T10:15:27;100932.94;;;18.00;100.00
49104;BME280;34915;52.926;11.116;2022-09-09T10:18:12;100937.41;;;18.09;100.00
49104;BME280;34915;52.926;11.116;2022-09-09T10:29:11;100942.56;;;17.93;100.00
49104;BME280;34915;52.926;11.116;2022-09-09T10:37:05;100935.59;;;18.27;100.00
49104;BME280;34915;52.926;11.116;2022-09-09T10:39:40;100927.97;;;18.32;100.00
49104;BME280;34915;52.926;11.116;2022-09-09T10:42:09;100924.41;;;18.49;100.00
49104;BME280;34915;52.926;11.116;2022-09-09T10:53:09;100926.91;;;19.02;100.00
49104;BME280;34915;52.926;11.116;2022-09-09T10:55:48;100923.16;;;18.95;100.00
49104;BME280;34915;52.926;11.116;2022-09-09T11:01:20;100919.69;;;19.28;100.00
49104;BME280;34915;52.926;11.116;2022-09-09T11:03:53;100915.13;;;19.54;100.00
49104;BME280;34915;52.926;11.116;2022-09-09T11:06:25;100916.88;;;19.71;100.00
49104;BME280;34915;52.926;11.116;2022-09-09T11:08:55;100920.91;;;19.67;100.00
49104;BME280;34915;52.926;11.116;2022-09-09T11:11:38;100908.97;;;19.69;99.13
49104;BME280;34915;52.926;11.116;2022-09-09T11:14:09;100918.66;;;19.87;94.27
49104;BME280;34915;52.926;11.116;2022-09-09T11:16:48;100916.31;;;19.92;98.27
49104;BME280;34915;52.926;11.116;2022-09-09T11:22:48;100913.28;;;19.87;97.36
49104;BME280;34915;52.926;11.116;2022-09-09T11:40:58;100906.28;;;20.10;94.35
49104;BME280;34915;52.926;11.116;2022-09-09T11:43:29;100900.44;;;20.30;95.72
49104;BME280;34915;52.926;11.116;2022-09-09T11:45:58;100902.28;;;20.38;94.67
49104;BME280;34915;52.926;11.116;2022-09-09T11:48:29;100904.66;;;20.49;86.56
49104;BME280;34915;52.926;11.116;2022-09-09T11:50:59;100906.66;;;20.31;93.02
49104;BME280;34915;52.926;11.116;2022-09-09T11:53:25;100899.22;;;20.17;94.28
49104;BME280;34915;52.926;11.116;2022-09-09T11:56:06;100896.53;;;20.09;94.95
49104;BME280;34915;52.926;11.116;2022-09-09T11:58:37;100901.25;;;20.15;92.55
49104;BME280;34915;52.926;11.116;2022-09-09T12:01:40;100897.19;;;20.03;94.03
49104;BME280;34915;52.926;11.116;2022-09-09T12:06:50;100882.41;;;20.07;96.88
49104;BME280;34915;52.926;11.116;2022-09-09T12:11:45;100866.94;;;20.33;87.07
49104;BME280;34915;52.926;11.116;2022-09-09T12:14:22;100884.28;;;20.30;85.46
49104;BME280;34915;52.926;11.116;2022-09-09T12:16:48;100884.44;;;20.21;89.65
49104;BME280;34915;52.926;11.116;2022-09-09T12:19:22;100882.59;;;20.37;92.07
49104;BME280;34915;52.926;11.116;2022-09-09T12:22:03;100880.09;;;20.44;89.00
49104;BME280;34915;52.926;11.116;2022-09-09T12:24:49;100879.41;;;20.66;83.74
49104;BME280;34915;52.926;11.116;2022-09-09T12:29:56;100869.66;;;20.57;87.52
49104;BME280;34915;52.926;11.116;2022-09-09T12:32:26;100866.28;;;20.39;86.71
49104;BME280;34915;52.926;11.116;2022-09-09T12:34:55;100859.72;;;20.26;89.03
49104;BME280;34915;52.926;11.116;2022-09-09T12:42:44;100853.72;;;19.82;91.68
49104;BME280;34915;52.926;11.116;2022-09-09T12:45:21;100860.13;;;19.81;92.76
49104;BME280;34915;52.926;11.116;2022-09-09T12:48:01;100863.81;;;19.80;93.98
49104;BME280;34915;52.926;11.116;2022-09-09T12:50:35;100863.97;;;19.71;91.77
49104;BME280;34915;52.926;11.116;2022-09-09T12:53:10;100860.06;;;19.66;92.07
49104;BME280;34915;52.926;11.116;2022-09-09T12:55:38;100868.47;;;19.71;91.55
49104;BME280;34915;52.926;11.116;2022-09-09T12:58:05;100865.81;;;19.78;90.81
49104;BME280;34915;52.926;11.116;2022-09-09T13:00:32;100868.84;;;19.83;92.33
49104;BME280;34915;52.926;11.116;2022-09-09T13:03:00;100866.28;;;19.66;93.82
49104;BME280;34915;52.926;11.116;2022-09-09T13:05:37;100860.72;;;19.60;93.84
49104;BME280;34915;52.926;11.116;2022-09-09T13:08:11;100862.72;;;19.58;93.64
49104;BME280;34915;52.926;11.116;2022-09-09T13:10:54;100855.66;;;19.57;92.77
49104;BME280;34915;52.926;11.116;2022-09-09T13:13:25;100865.38;;;19.50;92.62
49104;BME280;34915;52.926;11.116;2022-09-09T13:15:53;100880.22;;;19.62;90.81
49104;BME280;34915;52.926;11.116;2022-09-09T13:18:35;100924.34;;;19.84;87.27
49104;BME280;34915;52.926;11.116;2022-09-09T13:21:01;100897.34;;;19.61;85.70
49104;BME280;34915;52.926;11.116;2022-09-09T13:23:30;100902.22;;;18.81;96.68
49104;BME280;34915;52.926;11.116;2022-09-09T13:25:58;100887.28;;;17.92;100.00
49104;BME280;34915;52.926;11.116;2022-09-09T13:28:27;100896.31;;;17.47;100.00
49104;BME280;34915;52.926;11.116;2022-09-09T13:31:00;100883.78;;;17.02;100.00
49104;BME280;34915;52.926;11.116;2022-09-09T13:33:45;100881.59;;;16.70;100.00
49104;BME280;34915;52.926;11.116;2022-09-09T13:36:12;100875.13;;;16.44;100.00
49104;BME280;34915;52.926;11.116;2022-09-09T13:41:29;100874.84;;;16.09;100.00
49104;BME280;34915;52.926;11.116;2022-09-09T13:43:56;100885.53;;;16.09;100.00
49104;BME280;34915;52.926;11.116;2022-09-09T13:54:06;100912.66;;;15.95;100.00
49104;BME280;34915;52.926;11.116;2022-09-09T13:56:35;100918.72;;;15.97;100.00
49104;BME280;34915;52.926;11.116;2022-09-09T13:59:02;100912.38;;;15.98;100.00
49104;BME280;34915;52.926;11.116;2022-09-09T14:01:29;100909.72;;;15.98;100.00
49104;BME280;34915;52.926;11.116;2022-09-09T14:03:55;100907.47;;;16.03;100.00
49104;BME280;34915;52.926;11.116;2022-09-09T14:06:25;100917.16;;;16.04;100.00
49104;BME280;34915;52.926;11.116;2022-09-09T14:08:51;100919.56;;;16.07;100.00
49104;BME280;34915;52.926;11.116;2022-09-09T14:11:17;100929.00;;;16.11;100.00
49104;BME280;34915;52.926;11.116;2022-09-09T14:13:43;100938.44;;;16.15;100.00
49104;BME280;34915;52.926;11.116;2022-09-09T14:16:09;100940.69;;;16.20;100.00
49104;BME280;34915;52.926;11.116;2022-09-09T14:18:35;100946.88;;;16.20;100.00
49104;BME280;34915;52.926;11.116;2022-09-09T14:21:01;100948.34;;;16.24;100.00
49104;BME280;34915;52.926;11.116;2022-09-09T14:23:29;100941.53;;;16.20;100.00
49104;BME280;34915;52.926;11.116;2022-09-09T14:25:55;100938.16;;;16.18;100.00
49104;BME280;34915;52.926;11.116;2022-09-09T14:28:20;100936.78;;;16.24;100.00
49104;BME280;34915;52.926;11.116;2022-09-09T14:30:46;100941.53;;;16.20;100.00
49104;BME280;34915;52.926;11.116;2022-09-09T14:33:17;100940.13;;;16.16;100.00
49104;BME280;34915;52.926;11.116;2022-09-09T14:35:42;100934.78;;;16.16;100.00
49104;BME280;34915;52.926;11.116;2022-09-09T14:38:08;100934.78;;;16.16;100.00
49104;BME280;34915;52.926;11.116;2022-09-09T14:40:38;100937.44;;;16.16;100.00
49104;BME280;34915;52.926;11.116;2022-09-09T14:43:04;100937.03;;;16.21;100.00
49104;BME280;34915;52.926;11.116;2022-09-09T14:45:31;100940.72;;;16.29;100.00
49104;BME280;34915;52.926;11.116;2022-09-09T14:47:57;100934.81;;;16.35;100.00
49104;BME280;34915;52.926;11.116;2022-09-09T14:50:23;100933.97;;;16.44;100.00
49104;BME280;34915;52.926;11.116;2022-09-09T14:52:49;100930.59;;;16.51;100.00
49104;BME280;34915;52.926;11.116;2022-09-09T14:55:16;100934.53;;;16.57;100.00
49104;BME280;34915;52.926;11.116;2022-09-09T14:57:42;100926.94;;;16.62;100.00
49104;BME280;34915;52.926;11.116;2022-09-09T15:00:09;100924.97;;;16.64;100.00
49104;BME280;34915;52.926;11.116;2022-09-09T15:02:35;100927.22;;;16.59;100.00
49104;BME280;34915;52.926;11.116;2022-09-09T15:05:01;100930.88;;;16.58;100.00
49104;BME280;34915;52.926;11.116;2022-09-09T15:07:27;100932.88;;;16.56;100.00
49104;BME280;34915;52.926;11.116;2022-09-09T15:09:54;100919.34;;;16.57;100.00